Time;durP1;ratioP1;P1;durP2;ratioP2;P2;SDS_P1;SDS_P2;PMS_P1;PMS_P2;Temp;Humidity;BMP_temperature;BMP_pressure;BME280_temperature;BME280_humidity;BME280_pressure;Samples;Min_cycle;Max_cycle;Signal;HPM_P1;HPM_P2
2022/01/28 00:04:49;;;;;;;0.30;0.30;;;;;;;;;;1865535;75;26273;-50
2022/01/28 00:07:17;;;;;;;0.40;0.40;;;;;;;;;;1872448;76;26270;-43
2022/01/28 00:09:44;;;;;;;1.62;0.35;;;;;;;;;;1869742;76;26253;-44
2022/01/28 00:12:12;;;;;;;0.23;0.20;;;;;;;;;;1871112;75;26268;-46
2022/01/28 00:15:22;;;;;;;0.20;0.20;;;;;;;;;;1878997;76;26336;-50
2022/01/28 00:17:52;;;;;;;0.30;0.30;;;;;;;;;;1865526;76;26258;-45
2022/01/28 00:39:09;;;;;;;0.30;0.30;;;;;;;;;;1867945;75;26313;-46
2022/01/28 00:41:36;;;;;;;0.15;0.15;;;;;;;;;;1863710;74;26327;-47
2022/01/28 00:44:03;;;;;;;0.30;0.30;;;;;;;;;;1869646;76;26342;-50
2022/01/28 00:46:31;;;;;;;0.17;0.17;;;;;;;;;;1871761;75;26344;-52
2022/01/28 00:48:58;;;;;;;0.30;0.30;;;;;;;;;;1870882;76;26245;-44
2022/01/28 00:51:25;;;;;;;0.13;0.13;;;;;;;;;;1859628;75;26338;-45
2022/01/28 00:53:53;;;;;;;0.47;0.15;;;;;;;;;;1871212;75;26910;-49
2022/01/28 00:56:20;;;;;;;0.30;0.30;;;;;;;;;;1882616;76;26791;-46
2022/01/28 00:58:48;;;;;;;0.30;0.30;;;;;;;;;;1887290;76;26190;-53
2022/01/28 01:01:15;;;;;;;0.25;0.25;;;;;;;;;;1890150;74;26343;-47
2022/01/28 01:03:43;;;;;;;0.30;0.30;;;;;;;;;;1873535;75;26787;-46
2022/01/28 01:06:10;;;;;;;0.33;0.20;;;;;;;;;;1879205;76;26252;-45
2022/01/28 01:08:37;;;;;;;0.20;0.20;;;;;;;;;;1881916;76;26198;-44
2022/01/28 01:11:05;;;;;;;0.40;0.30;;;;;;;;;;1875180;75;26962;-42
2022/01/28 01:13:37;;;;;;;0.20;0.20;;;;;;;;;;1878918;76;26981;-44
2022/01/28 01:16:03;;;;;;;0.20;0.20;;;;;;;;;;1866417;76;26344;-44
2022/01/28 01:19:36;;;;;;;0.20;0.20;;;;;;;;;;1869936;76;26775;-43
2022/01/28 01:21:13;;;;;;;0.10;0.10;;;;;;;;;;1854217;75;26746;-46
2022/01/28 01:23:39;;;;;;;0.57;0.20;;;;;;;;;;1890262;75;26285;-45
2022/01/28 01:26:10;;;;;;;0.20;0.20;;;;;;;;;;1873928;74;26354;-48
2022/01/28 01:28:37;;;;;;;0.23;0.23;;;;;;;;;;1875786;76;26724;-52
2022/01/28 01:31:07;;;;;;;0.30;0.30;;;;;;;;;;1876370;76;26339;-49
2022/01/28 01:33:40;;;;;;;0.20;0.20;;;;;;;;;;1886198;75;26269;-48
2022/01/28 01:36:04;;;;;;;0.20;0.20;;;;;;;;;;1869394;75;26382;-46
2022/01/28 01:38:35;;;;;;;0.23;0.23;;;;;;;;;;1872905;75;26264;-42
2022/01/28 01:41:03;;;;;;;0.40;0.40;;;;;;;;;;1882315;76;26256;-50
2022/01/28 01:43:43;;;;;;;0.40;0.40;;;;;;;;;;1886026;75;26281;-46
2022/01/28 01:46:22;;;;;;;0.28;0.28;;;;;;;;;;1878169;75;26718;-51
2022/01/28 01:54:11;;;;;;;0.30;0.30;;;;;;;;;;1874698;76;26347;-42
2022/01/28 01:56:39;;;;;;;0.17;0.17;;;;;;;;;;1880225;75;26293;-50
2022/01/28 01:59:07;;;;;;;0.33;0.33;;;;;;;;;;1893686;75;26702;-49
2022/01/28 02:01:36;;;;;;;0.28;0.28;;;;;;;;;;1884048;75;26241;-48
2022/01/28 02:04:03;;;;;;;0.20;0.20;;;;;;;;;;1885737;75;26260;-49
2022/01/28 02:06:31;;;;;;;0.20;0.20;;;;;;;;;;1884083;75;26249;-46
2022/01/28 02:08:59;;;;;;;0.20;0.20;;;;;;;;;;1884202;75;26245;-50
2022/01/28 02:11:26;;;;;;;0.23;0.23;;;;;;;;;;1882573;75;26284;-54
2022/01/28 02:13:54;;;;;;;0.17;0.17;;;;;;;;;;1893872;75;26358;-50
2022/01/28 02:16:21;;;;;;;0.20;0.20;;;;;;;;;;1876472;75;26264;-47
2022/01/28 02:18:48;;;;;;;0.80;0.30;;;;;;;;;;1889747;75;26267;-50
2022/01/28 02:21:17;;;;;;;0.20;0.20;;;;;;;;;;1882895;75;26299;-46
2022/01/28 02:23:49;;;;;;;0.20;0.20;;;;;;;;;;1883063;75;26272;-46
2022/01/28 02:26:16;;;;;;;0.20;0.20;;;;;;;;;;1877714;75;26366;-47
2022/01/28 02:28:47;;;;;;;0.20;0.20;;;;;;;;;;1881545;75;26293;-44
2022/01/28 02:31:18;;;;;;;0.10;0.10;;;;;;;;;;1883149;75;26401;-47
2022/01/28 02:33:42;;;;;;;0.25;0.25;;;;;;;;;;1880672;75;26409;-50
2022/01/28 02:36:09;;;;;;;0.30;0.30;;;;;;;;;;1882912;75;26268;-54
2022/01/28 02:38:36;;;;;;;0.65;0.17;;;;;;;;;;1886863;75;26292;-47
2022/01/28 02:41:06;;;;;;;0.20;0.20;;;;;;;;;;1887684;75;26326;-48
2022/01/28 02:46:16;;;;;;;0.20;0.20;;;;;;;;;;1888130;75;26301;-51
2022/01/28 02:48:41;;;;;;;0.10;0.10;;;;;;;;;;1892335;75;26402;-46
2022/01/28 02:51:15;;;;;;;0.20;0.20;;;;;;;;;;1894375;75;26317;-47
2022/01/28 02:53:48;;;;;;;0.20;0.20;;;;;;;;;;1882928;75;26335;-47
2022/01/28 02:56:18;;;;;;;0.20;0.20;;;;;;;;;;1885307;75;26677;-43
2022/01/28 02:58:44;;;;;;;0.20;0.20;;;;;;;;;;1874869;76;26275;-46
2022/01/28 03:01:15;;;;;;;0.17;0.17;;;;;;;;;;1883070;76;26299;-48
2022/01/28 03:03:43;;;;;;;0.10;0.10;;;;;;;;;;1882688;75;26258;-49
2022/01/28 03:06:12;;;;;;;0.13;0.13;;;;;;;;;;1885171;75;26288;-46
2022/01/28 03:08:43;;;;;;;0.20;0.20;;;;;;;;;;1883137;75;26982;-45
2022/01/28 03:14:16;;;;;;;0.20;0.20;;;;;;;;;;1875060;76;26830;-42
2022/01/28 03:16:33;;;;;;;0.17;0.17;;;;;;;;;;1877979;76;26312;-43
2022/01/28 03:19:21;;;;;;;0.30;0.30;;;;;;;;;;1880278;76;26358;-47
2022/01/28 03:24:01;;;;;;;0.10;0.10;;;;;;;;;;1876108;75;26999;-45
2022/01/28 03:26:29;;;;;;;0.13;0.13;;;;;;;;;;1891546;75;26312;-43
2022/01/28 03:28:56;;;;;;;0.20;0.20;;;;;;;;;;1876960;75;26253;-50
2022/01/28 03:31:23;;;;;;;0.17;0.17;;;;;;;;;;1862503;75;26304;-43
2022/01/28 03:33:50;;;;;;;0.35;0.35;;;;;;;;;;1874673;76;26738;-48
2022/01/28 03:36:18;;;;;;;0.20;0.20;;;;;;;;;;1883294;75;26919;-43
2022/01/28 03:38:48;;;;;;;0.10;0.10;;;;;;;;;;1880529;75;26261;-49
2022/01/28 03:41:19;;;;;;;0.20;0.20;;;;;;;;;;1877670;76;26840;-51
2022/01/28 03:43:47;;;;;;;0.30;0.30;;;;;;;;;;1886313;75;26341;-43
2022/01/28 03:46:15;;;;;;;0.20;0.20;;;;;;;;;;1877511;75;26249;-50
2022/01/28 03:48:43;;;;;;;0.20;0.20;;;;;;;;;;1879009;74;26301;-48
2022/01/28 03:51:10;;;;;;;0.15;0.15;;;;;;;;;;1878753;75;26276;-44
2022/01/28 03:53:38;;;;;;;0.23;0.20;;;;;;;;;;1879356;75;26780;-48
2022/01/28 03:56:05;;;;;;;0.20;0.20;;;;;;;;;;1879863;75;26760;-50
2022/01/28 03:58:32;;;;;;;0.33;0.33;;;;;;;;;;1857563;76;26190;-46
2022/01/28 04:01:00;;;;;;;0.30;0.30;;;;;;;;;;1884234;75;26347;-45
2022/01/28 04:11:33;;;;;;;0.30;0.30;;;;;;;;;;1855133;75;27013;-46
2022/01/28 04:14:10;;;;;;;0.10;0.10;;;;;;;;;;1880536;75;26805;-48
2022/01/28 04:17:18;;;;;;;0.28;0.28;;;;;;;;;;1854436;76;26302;-46
2022/01/28 04:19:04;;;;;;;0.20;0.20;;;;;;;;;;1872881;75;26533;-46
2022/01/28 04:21:29;;;;;;;0.10;0.10;;;;;;;;;;1867811;75;26393;-46
2022/01/28 04:23:56;;;;;;;0.20;0.20;;;;;;;;;;1875319;75;26271;-49
2022/01/28 04:26:23;;;;;;;1.15;0.28;;;;;;;;;;1862889;76;26326;-43
2022/01/28 04:28:51;;;;;;;0.30;0.30;;;;;;;;;;1872978;75;26566;-48
2022/01/28 04:31:18;;;;;;;0.20;0.20;;;;;;;;;;1866382;76;26312;-43
2022/01/28 04:33:45;;;;;;;0.30;0.30;;;;;;;;;;1880590;74;26276;-47
2022/01/28 04:36:15;;;;;;;1.25;0.30;;;;;;;;;;1872084;75;26285;-55
2022/01/28 04:38:50;;;;;;;0.20;0.20;;;;;;;;;;1860377;76;26785;-44
2022/01/28 04:41:25;;;;;;;0.30;0.15;;;;;;;;;;1849206;76;27727;-45
2022/01/28 04:43:52;;;;;;;0.20;0.20;;;;;;;;;;1854406;76;26362;-44
2022/01/28 04:46:31;;;;;;;0.20;0.20;;;;;;;;;;1875451;75;26284;-45
2022/01/28 04:48:58;;;;;;;0.20;0.20;;;;;;;;;;1875716;76;26214;-42
2022/01/28 04:51:34;;;;;;;0.20;0.20;;;;;;;;;;1875305;76;27269;-44
2022/01/28 04:54:00;;;;;;;0.10;0.10;;;;;;;;;;1874493;75;26772;-45
2022/01/28 04:56:32;;;;;;;0.20;0.10;;;;;;;;;;1863102;76;26765;-46
2022/01/28 04:59:02;;;;;;;0.10;0.10;;;;;;;;;;1866593;76;26357;-48
2022/01/28 05:04:14;;;;;;;0.20;0.20;;;;;;;;;;1850264;76;26519;-50
2022/01/28 05:07:06;;;;;;;0.25;0.25;;;;;;;;;;1832584;77;26812;-54
2022/01/28 05:15:06;;;;;;;0.10;0.10;;;;;;;;;;1831803;77;26381;-43
2022/01/28 05:23:07;;;;;;;1.65;0.20;;;;;;;;;;1836384;76;26256;-44
2022/01/28 05:27:38;;;;;;;0.10;0.10;;;;;;;;;;1792038;78;26227;-47
2022/01/28 05:29:57;;;;;;;0.17;0.17;;;;;;;;;;1798482;78;26379;-50
2022/01/28 05:32:25;;;;;;;0.00;0.00;;;;;;;;;;1811695;78;26309;-45
2022/01/28 05:34:52;;;;;;;0.15;0.15;;;;;;;;;;1804197;78;26857;-51
2022/01/28 05:37:19;;;;;;;0.10;0.10;;;;;;;;;;1819480;77;26908;-44
2022/01/28 05:39:47;;;;;;;0.20;0.20;;;;;;;;;;1813977;77;26329;-43
2022/01/28 05:42:14;;;;;;;0.10;0.10;;;;;;;;;;1820136;77;26329;-45
2022/01/28 05:44:41;;;;;;;0.10;0.10;;;;;;;;;;1810743;77;26361;-43
2022/01/28 05:47:14;;;;;;;0.20;0.20;;;;;;;;;;1817923;77;26412;-45
2022/01/28 05:49:38;;;;;;;0.10;0.10;;;;;;;;;;1816354;78;26318;-46
2022/01/28 05:52:06;;;;;;;0.20;0.20;;;;;;;;;;1818947;78;26289;-48
2022/01/28 05:54:33;;;;;;;0.10;0.10;;;;;;;;;;1810484;79;26767;-45
2022/01/28 05:57:01;;;;;;;0.17;0.17;;;;;;;;;;1818840;78;26377;-47
2022/01/28 05:59:30;;;;;;;0.37;0.10;;;;;;;;;;1822758;78;26278;-42
2022/01/28 06:01:57;;;;;;;0.30;0.10;;;;;;;;;;1817209;77;26356;-43
2022/01/28 06:04:25;;;;;;;0.10;0.10;;;;;;;;;;1818321;77;26282;-47
2022/01/28 06:06:52;;;;;;;0.15;0.10;;;;;;;;;;1819712;77;26624;-48
2022/01/28 06:09:20;;;;;;;4.53;0.15;;;;;;;;;;1820386;77;26357;-49
2022/01/28 06:11:47;;;;;;;4.40;0.20;;;;;;;;;;1827748;78;26299;-52
2022/01/28 06:14:14;;;;;;;0.20;0.20;;;;;;;;;;1817015;78;26356;-53
2022/01/28 06:16:42;;;;;;;1.75;0.40;;;;;;;;;;1789265;79;26425;-51
2022/01/28 06:19:09;;;;;;;0.20;0.20;;;;;;;;;;1802679;79;26349;-50
2022/01/28 06:21:36;;;;;;;1.60;0.30;;;;;;;;;;1805970;78;26835;-48
2022/01/28 06:24:04;;;;;;;0.20;0.13;;;;;;;;;;1786114;79;26736;-51
2022/01/28 06:26:31;;;;;;;0.15;0.15;;;;;;;;;;1780812;79;25808;-45
2022/01/28 06:28:58;;;;;;;0.10;0.10;;;;;;;;;;1782926;79;26693;-43
2022/01/28 06:31:26;;;;;;;1.55;0.15;;;;;;;;;;1771084;80;26363;-43
2022/01/28 06:33:53;;;;;;;0.10;0.10;;;;;;;;;;1793522;79;26323;-46
2022/01/28 06:36:21;;;;;;;0.10;0.10;;;;;;;;;;1778730;79;26578;-46
2022/01/28 06:38:49;;;;;;;0.20;0.20;;;;;;;;;;1801566;79;26371;-52
2022/01/28 06:41:16;;;;;;;0.00;0.00;;;;;;;;;;1820611;78;26227;-46
2022/01/28 06:43:44;;;;;;;0.20;0.20;;;;;;;;;;1786101;79;26352;-47
2022/01/28 06:46:11;;;;;;;0.20;0.20;;;;;;;;;;1794954;79;26286;-48
2022/01/28 06:48:38;;;;;;;1.40;0.10;;;;;;;;;;1813962;78;26334;-49
2022/01/28 06:51:05;;;;;;;1.40;0.20;;;;;;;;;;1768216;80;26824;-53
2022/01/28 06:53:33;;;;;;;0.47;0.20;;;;;;;;;;1786913;79;26776;-54
2022/01/28 06:56:00;;;;;;;0.20;0.20;;;;;;;;;;1776557;80;27365;-49
2022/01/28 06:58:27;;;;;;;0.30;0.30;;;;;;;;;;1816820;77;26356;-57
2022/01/28 07:00:55;;;;;;;0.50;0.20;;;;;;;;;;1838063;77;26268;-49
2022/01/28 07:03:22;;;;;;;0.30;0.30;;;;;;;;;;1879689;75;26265;-48
2022/01/28 07:05:49;;;;;;;0.10;0.10;;;;;;;;;;1863859;75;26273;-49
2022/01/28 07:08:16;;;;;;;0.35;0.25;;;;;;;;;;1876144;76;26370;-47
2022/01/28 07:10:44;;;;;;;0.55;0.45;;;;;;;;;;1877488;74;26287;-49
2022/01/28 07:13:13;;;;;;;1.17;0.20;;;;;;;;;;1874607;76;27431;-47
2022/01/28 07:15:41;;;;;;;0.20;0.20;;;;;;;;;;1876826;75;26819;-52
2022/01/28 07:18:08;;;;;;;0.23;0.10;;;;;;;;;;1869116;75;26258;-55
2022/01/28 07:20:35;;;;;;;0.30;0.23;;;;;;;;;;1868065;76;26823;-49
2022/01/28 07:23:03;;;;;;;0.30;0.20;;;;;;;;;;1869992;76;26727;-48
2022/01/28 07:25:30;;;;;;;0.23;0.20;;;;;;;;;;1864982;75;26593;-46
2022/01/28 07:27:58;;;;;;;0.33;0.30;;;;;;;;;;1866566;76;26788;-50
2022/01/28 07:30:25;;;;;;;2.00;0.40;;;;;;;;;;1869213;76;26265;-52
2022/01/28 07:32:52;;;;;;;0.30;0.30;;;;;;;;;;1867491;75;26246;-52
2022/01/28 07:35:20;;;;;;;0.28;0.28;;;;;;;;;;1869601;76;26316;-49
2022/01/28 07:37:47;;;;;;;0.70;0.20;;;;;;;;;;1870529;75;26684;-47
2022/01/28 07:40:15;;;;;;;1.65;0.30;;;;;;;;;;1870670;75;26848;-51
2022/01/28 07:42:43;;;;;;;0.40;0.33;;;;;;;;;;1867726;75;26281;-54
2022/01/28 07:45:13;;;;;;;0.28;0.28;;;;;;;;;;1869006;75;26266;-51
2022/01/28 07:47:40;;;;;;;0.30;0.20;;;;;;;;;;1869183;75;26246;-44
2022/01/28 07:50:09;;;;;;;0.25;0.25;;;;;;;;;;1871429;75;26323;-53
2022/01/28 07:52:36;;;;;;;0.30;0.30;;;;;;;;;;1871007;75;27502;-43
2022/01/28 07:55:05;;;;;;;1.47;0.45;;;;;;;;;;1870846;76;26248;-56
2022/01/28 07:57:34;;;;;;;0.30;0.30;;;;;;;;;;1873081;75;26716;-48
2022/01/28 08:00:03;;;;;;;0.28;0.28;;;;;;;;;;1877529;75;26329;-50
2022/01/28 08:02:30;;;;;;;0.23;0.23;;;;;;;;;;1867093;76;26299;-47
2022/01/28 08:04:57;;;;;;;0.10;0.10;;;;;;;;;;1871243;76;26661;-47
2022/01/28 08:07:25;;;;;;;0.53;0.40;;;;;;;;;;1863430;76;26736;-45
2022/01/28 08:09:52;;;;;;;0.50;0.20;;;;;;;;;;1871943;75;26375;-59
2022/01/28 08:12:19;;;;;;;0.20;0.20;;;;;;;;;;1871473;75;26265;-55
2022/01/28 08:14:47;;;;;;;0.25;0.25;;;;;;;;;;1864298;75;26763;-47
2022/01/28 08:17:14;;;;;;;0.40;0.40;;;;;;;;;;1866862;75;26721;-49
2022/01/28 08:19:41;;;;;;;0.17;0.17;;;;;;;;;;1867374;76;26346;-49
2022/01/28 08:22:08;;;;;;;1.47;0.30;;;;;;;;;;1870448;76;26347;-50
2022/01/28 08:24:36;;;;;;;0.30;0.30;;;;;;;;;;1870111;76;26279;-51
2022/01/28 08:27:04;;;;;;;0.30;0.30;;;;;;;;;;1870910;76;26770;-55
2022/01/28 08:29:31;;;;;;;0.10;0.10;;;;;;;;;;1869833;76;26258;-53
2022/01/28 08:31:58;;;;;;;0.30;0.30;;;;;;;;;;1868610;76;26320;-49
2022/01/28 08:34:25;;;;;;;0.20;0.20;;;;;;;;;;1866570;76;26253;-48
2022/01/28 08:36:53;;;;;;;0.10;0.10;;;;;;;;;;1875254;76;26260;-53
2022/01/28 08:39:22;;;;;;;0.30;0.30;;;;;;;;;;1872295;75;26288;-55
2022/01/28 08:41:49;;;;;;;0.40;0.30;;;;;;;;;;1872081;76;26257;-49
2022/01/28 08:44:17;;;;;;;0.30;0.17;;;;;;;;;;1879794;75;26348;-51
2022/01/28 08:46:44;;;;;;;0.15;0.15;;;;;;;;;;1874414;76;26277;-52
2022/01/28 08:49:12;;;;;;;0.25;0.25;;;;;;;;;;1867739;76;26714;-50
2022/01/28 08:51:39;;;;;;;1.00;0.30;;;;;;;;;;1865338;75;26265;-47
2022/01/28 08:54:06;;;;;;;0.17;0.17;;;;;;;;;;1859317;75;26685;-51
2022/01/28 08:56:34;;;;;;;0.60;0.20;;;;;;;;;;1856712;76;26587;-46
2022/01/28 08:59:01;;;;;;;1.25;0.47;;;;;;;;;;1858998;76;26369;-47
2022/01/28 09:01:30;;;;;;;0.30;0.30;;;;;;;;;;1877726;75;26322;-49
2022/01/28 09:03:57;;;;;;;0.30;0.30;;;;;;;;;;1837077;77;26851;-48
2022/01/28 09:06:25;;;;;;;0.10;0.10;;;;;;;;;;1831604;77;26287;-47
2022/01/28 09:08:55;;;;;;;1.50;0.33;;;;;;;;;;1826611;78;26271;-45
2022/01/28 09:13:50;;;;;;;0.25;0.25;;;;;;;;;;1813190;78;26265;-55
2022/01/28 09:16:17;;;;;;;0.40;0.20;;;;;;;;;;1822769;78;26286;-48
2022/01/28 09:18:45;;;;;;;0.20;0.20;;;;;;;;;;1837192;77;26768;-45
2022/01/28 09:21:13;;;;;;;0.30;0.30;;;;;;;;;;1839632;78;26241;-53
2022/01/28 09:23:41;;;;;;;0.33;0.33;;;;;;;;;;1839480;78;26654;-43
2022/01/28 09:26:09;;;;;;;2.30;0.35;;;;;;;;;;1831812;78;26664;-48
2022/01/28 09:28:36;;;;;;;0.40;0.40;;;;;;;;;;1830341;77;26260;-45
2022/01/28 09:31:04;;;;;;;0.88;0.37;;;;;;;;;;1821785;77;26289;-50
2022/01/28 09:33:31;;;;;;;0.50;0.40;;;;;;;;;;1819802;78;26844;-46
2022/01/28 09:35:58;;;;;;;0.40;0.40;;;;;;;;;;1839980;76;26846;-46
2022/01/28 09:38:25;;;;;;;0.50;0.50;;;;;;;;;;1802071;77;26275;-47
2022/01/28 09:40:55;;;;;;;0.85;0.45;;;;;;;;;;1816033;79;26259;-52
2022/01/28 09:43:23;;;;;;;0.47;0.47;;;;;;;;;;1822653;78;26364;-45
2022/01/28 09:45:50;;;;;;;0.40;0.40;;;;;;;;;;1813094;78;26288;-49
2022/01/28 09:48:18;;;;;;;1.85;0.33;;;;;;;;;;1793715;78;26302;-50
2022/01/28 09:50:47;;;;;;;0.40;0.40;;;;;;;;;;1855129;77;26362;-50
2022/01/28 09:53:14;;;;;;;0.65;0.40;;;;;;;;;;1848783;77;26264;-47
2022/01/28 09:55:45;;;;;;;0.35;0.35;;;;;;;;;;1853284;76;26381;-53
2022/01/28 09:58:12;;;;;;;0.57;0.57;;;;;;;;;;1839128;77;26316;-46
2022/01/28 10:00:39;;;;;;;1.50;0.60;;;;;;;;;;1844851;77;26328;-51
2022/01/28 10:03:11;;;;;;;0.60;0.60;;;;;;;;;;1840152;77;26319;-56
2022/01/28 10:05:40;;;;;;;0.50;0.50;;;;;;;;;;1851163;77;26378;-56
2022/01/28 10:08:11;;;;;;;0.70;0.45;;;;;;;;;;1835741;77;26713;-55
2022/01/28 10:10:43;;;;;;;0.50;0.50;;;;;;;;;;1847447;77;26279;-48
2022/01/28 10:13:17;;;;;;;0.55;0.50;;;;;;;;;;1851635;77;26305;-57
2022/01/28 10:15:58;;;;;;;0.60;0.60;;;;;;;;;;1850076;77;26453;-49
2022/01/28 10:18:26;;;;;;;0.30;0.30;;;;;;;;;;1835132;77;26330;-58
2022/01/28 10:20:54;;;;;;;0.60;0.40;;;;;;;;;;1819939;78;26331;-52
2022/01/28 10:23:22;;;;;;;0.37;0.37;;;;;;;;;;1819224;77;26956;-49
2022/01/28 10:25:56;;;;;;;0.40;0.40;;;;;;;;;;1829056;77;26314;-52
2022/01/28 10:28:18;;;;;;;0.50;0.50;;;;;;;;;;1814147;77;26287;-51
2022/01/28 10:30:46;;;;;;;0.45;0.45;;;;;;;;;;1836558;78;26319;-58
2022/01/28 10:33:19;;;;;;;0.47;0.47;;;;;;;;;;1814052;79;26295;-52
2022/01/28 10:35:54;;;;;;;0.78;0.50;;;;;;;;;;1856592;77;26240;-52
2022/01/28 10:38:29;;;;;;;1.10;0.40;;;;;;;;;;1846982;77;26278;-55
2022/01/28 10:41:12;;;;;;;0.30;0.30;;;;;;;;;;1840618;77;26289;-49
2022/01/28 10:43:44;;;;;;;0.72;0.40;;;;;;;;;;1855895;77;26287;-52
2022/01/28 10:46:12;;;;;;;0.85;0.40;;;;;;;;;;1837254;77;26408;-56
2022/01/28 10:48:49;;;;;;;0.30;0.30;;;;;;;;;;1819877;78;26639;-43
2022/01/28 10:51:18;;;;;;;0.53;0.53;;;;;;;;;;1847089;77;26417;-48
2022/01/28 10:54:04;;;;;;;0.30;0.30;;;;;;;;;;1820938;78;26734;-58
2022/01/28 10:56:33;;;;;;;2.22;0.40;;;;;;;;;;1804152;79;26712;-49
2022/01/28 10:59:02;;;;;;;1.30;0.50;;;;;;;;;;1802046;79;26642;-45
2022/01/28 11:01:29;;;;;;;0.40;0.40;;;;;;;;;;1792184;78;26349;-53
2022/01/28 11:03:56;;;;;;;0.85;0.50;;;;;;;;;;1788962;80;26270;-54
2022/01/28 11:06:24;;;;;;;0.68;0.40;;;;;;;;;;1785244;79;26294;-49
2022/01/28 11:08:52;;;;;;;0.95;0.40;;;;;;;;;;1787605;79;26730;-49
2022/01/28 11:11:19;;;;;;;0.40;0.40;;;;;;;;;;1780494;80;26329;-48
2022/01/28 11:13:47;;;;;;;0.40;0.40;;;;;;;;;;1780572;80;26327;-50
2022/01/28 11:16:14;;;;;;;0.53;0.40;;;;;;;;;;1779843;80;26719;-53
2022/01/28 11:18:42;;;;;;;0.55;0.40;;;;;;;;;;1792233;80;26305;-50
2022/01/28 11:21:14;;;;;;;0.30;0.30;;;;;;;;;;1778478;80;26874;-53
2022/01/28 11:23:59;;;;;;;0.55;0.50;;;;;;;;;;1789560;80;26286;-51
2022/01/28 11:26:28;;;;;;;0.37;0.37;;;;;;;;;;1783771;80;26325;-48
2022/01/28 11:29:02;;;;;;;0.90;0.40;;;;;;;;;;1792342;80;26309;-56
2022/01/28 11:31:46;;;;;;;1.20;0.20;;;;;;;;;;1789731;80;26816;-54
2022/01/28 11:34:14;;;;;;;0.35;0.30;;;;;;;;;;1783447;80;26306;-51
2022/01/28 11:36:42;;;;;;;0.68;0.25;;;;;;;;;;1787290;80;26344;-49
2022/01/28 11:39:20;;;;;;;0.33;0.33;;;;;;;;;;1792657;80;26291;-54
2022/01/28 11:42:07;;;;;;;0.40;0.40;;;;;;;;;;1785230;80;26593;-46
2022/01/28 11:44:38;;;;;;;0.30;0.30;;;;;;;;;;1790287;80;26365;-53
2022/01/28 11:47:06;;;;;;;0.37;0.37;;;;;;;;;;1788371;80;26338;-55
2022/01/28 11:49:35;;;;;;;0.37;0.35;;;;;;;;;;1785679;80;26271;-48
2022/01/28 11:52:03;;;;;;;0.30;0.30;;;;;;;;;;1786866;80;26298;-50
2022/01/28 11:54:34;;;;;;;0.55;0.50;;;;;;;;;;1785099;80;26778;-58
2022/01/28 11:57:13;;;;;;;0.65;0.37;;;;;;;;;;1790817;80;26776;-51
2022/01/28 11:59:41;;;;;;;0.30;0.28;;;;;;;;;;1789408;80;26329;-47
2022/01/28 12:02:09;;;;;;;10.82;0.60;;;;;;;;;;1778596;79;26899;-46
2022/01/28 12:04:38;;;;;;;0.50;0.45;;;;;;;;;;1783599;80;26912;-47
2022/01/28 12:07:10;;;;;;;1.65;0.40;;;;;;;;;;1780222;80;26362;-48
2022/01/28 12:09:39;;;;;;;0.40;0.40;;;;;;;;;;1779819;79;26420;-50
2022/01/28 12:12:11;;;;;;;0.65;0.40;;;;;;;;;;1766748;80;26364;-50
2022/01/28 12:14:58;;;;;;;0.53;0.50;;;;;;;;;;1775067;80;26417;-55
2022/01/28 12:17:32;;;;;;;0.40;0.40;;;;;;;;;;1779189;80;26644;-49
2022/01/28 12:20:17;;;;;;;0.80;0.45;;;;;;;;;;1786736;80;26326;-45
2022/01/28 12:23:01;;;;;;;0.47;0.28;;;;;;;;;;1776926;80;26750;-48
2022/01/28 12:25:46;;;;;;;0.20;0.20;;;;;;;;;;1789807;80;26459;-49
2022/01/28 12:28:23;;;;;;;0.30;0.30;;;;;;;;;;1775139;79;26309;-48
2022/01/28 12:30:52;;;;;;;0.62;0.40;;;;;;;;;;1774872;79;26369;-48
2022/01/28 12:33:23;;;;;;;0.70;0.50;;;;;;;;;;1786708;80;26282;-53
2022/01/28 12:35:53;;;;;;;3.70;0.40;;;;;;;;;;1771230;80;26270;-55
2022/01/28 12:38:23;;;;;;;0.82;0.30;;;;;;;;;;1779151;80;26337;-48
2022/01/28 12:40:52;;;;;;;0.20;0.20;;;;;;;;;;1783778;80;26675;-56
2022/01/28 12:43:20;;;;;;;0.37;0.20;;;;;;;;;;1778195;80;26396;-52
2022/01/28 12:45:48;;;;;;;1.00;0.20;;;;;;;;;;1786206;80;26291;-48
2022/01/28 12:48:17;;;;;;;0.45;0.20;;;;;;;;;;1787406;80;26282;-54
2022/01/28 12:50:46;;;;;;;0.42;0.30;;;;;;;;;;1785121;80;26290;-48
2022/01/28 12:53:18;;;;;;;1.30;0.20;;;;;;;;;;1781341;80;26271;-56
2022/01/28 12:55:44;;;;;;;1.00;0.20;;;;;;;;;;1782377;80;26330;-52
2022/01/28 12:58:12;;;;;;;1.47;0.40;;;;;;;;;;1771919;80;26282;-55
2022/01/28 13:00:40;;;;;;;0.47;0.30;;;;;;;;;;1786857;78;27328;-52
2022/01/28 13:03:07;;;;;;;1.50;0.33;;;;;;;;;;1806274;78;26214;-55
2022/01/28 13:05:37;;;;;;;1.30;0.30;;;;;;;;;;1805654;78;26287;-54
2022/01/28 13:10:49;;;;;;;2.60;0.40;;;;;;;;;;1827641;77;26859;-52
2022/01/28 13:13:18;;;;;;;0.30;0.30;;;;;;;;;;1844469;77;26312;-56
2022/01/28 13:15:47;;;;;;;0.23;0.23;;;;;;;;;;1835895;78;26273;-51
2022/01/28 13:18:14;;;;;;;1.37;0.30;;;;;;;;;;1799920;78;26202;-53
2022/01/28 13:20:42;;;;;;;1.62;0.15;;;;;;;;;;1861941;75;26320;-55
2022/01/28 13:23:11;;;;;;;1.00;0.35;;;;;;;;;;1855824;75;26744;-53
2022/01/28 13:25:39;;;;;;;0.10;0.10;;;;;;;;;;1868825;76;26548;-54
2022/01/28 13:28:13;;;;;;;0.20;0.20;;;;;;;;;;1859524;75;26816;-53
2022/01/28 13:30:41;;;;;;;0.10;0.10;;;;;;;;;;1866617;76;26238;-48
2022/01/28 13:33:11;;;;;;;0.28;0.28;;;;;;;;;;1865548;75;26229;-53
2022/01/28 13:35:39;;;;;;;0.10;0.10;;;;;;;;;;1857308;76;26316;-50
2022/01/28 13:38:17;;;;;;;0.20;0.20;;;;;;;;;;1852744;75;26891;-56
2022/01/28 13:40:44;;;;;;;0.93;0.37;;;;;;;;;;1874123;76;26343;-51
2022/01/28 13:43:12;;;;;;;0.72;0.20;;;;;;;;;;1885243;75;26304;-54
2022/01/28 13:45:47;;;;;;;0.13;0.13;;;;;;;;;;1862213;75;26259;-57
2022/01/28 13:48:21;;;;;;;0.50;0.25;;;;;;;;;;1862136;76;26343;-52
2022/01/28 13:50:50;;;;;;;0.10;0.10;;;;;;;;;;1869778;76;26915;-49
2022/01/28 13:56:03;;;;;;;0.57;0.47;;;;;;;;;;1852697;75;26534;-55
2022/01/28 13:58:32;;;;;;;0.15;0.15;;;;;;;;;;1848772;76;26260;-48
2022/01/28 14:01:01;;;;;;;0.17;0.17;;;;;;;;;;1868424;76;26268;-53
2022/01/28 14:03:28;;;;;;;0.10;0.10;;;;;;;;;;1855098;77;26277;-54
2022/01/28 14:05:57;;;;;;;1.45;0.10;;;;;;;;;;1857107;77;26290;-54
2022/01/28 14:08:38;;;;;;;0.13;0.13;;;;;;;;;;1857422;76;26245;-51
2022/01/28 14:11:20;;;;;;;0.20;0.20;;;;;;;;;;1855630;77;26238;-50
2022/01/28 14:14:06;;;;;;;0.28;0.28;;;;;;;;;;1856894;76;26304;-49
2022/01/28 14:16:34;;;;;;;0.30;0.23;;;;;;;;;;1844624;77;26266;-49
2022/01/28 14:19:01;;;;;;;0.17;0.17;;;;;;;;;;1856640;77;26683;-49
2022/01/28 14:21:29;;;;;;;0.20;0.20;;;;;;;;;;1847238;77;28141;-51
2022/01/28 14:23:56;;;;;;;0.20;0.20;;;;;;;;;;1855501;77;26326;-53
2022/01/28 14:26:24;;;;;;;1.25;0.17;;;;;;;;;;1855647;77;26253;-54
2022/01/28 14:31:26;;;;;;;1.98;0.42;;;;;;;;;;1854865;77;26269;-47
2022/01/28 14:33:54;;;;;;;0.20;0.20;;;;;;;;;;1854390;77;26269;-55
2022/01/28 14:36:22;;;;;;;0.10;0.10;;;;;;;;;;1852648;76;26587;-48
2022/01/28 14:38:49;;;;;;;0.03;0.03;;;;;;;;;;1855464;77;26347;-50
2022/01/28 14:41:17;;;;;;;0.20;0.20;;;;;;;;;;1856446;77;26758;-53
2022/01/28 14:43:44;;;;;;;0.33;0.10;;;;;;;;;;1850995;76;26296;-56
2022/01/28 14:46:11;;;;;;;0.30;0.10;;;;;;;;;;1855348;77;26285;-49
2022/01/28 14:48:39;;;;;;;0.10;0.10;;;;;;;;;;1856453;76;26385;-50
2022/01/28 14:51:06;;;;;;;0.10;0.10;;;;;;;;;;1855751;77;26262;-50
2022/01/28 14:53:34;;;;;;;1.05;0.20;;;;;;;;;;1855335;76;26265;-50
2022/01/28 14:56:01;;;;;;;0.10;0.10;;;;;;;;;;1856887;76;26311;-52
2022/01/28 14:58:28;;;;;;;0.55;0.20;;;;;;;;;;1854388;77;26319;-46
2022/01/28 15:00:56;;;;;;;0.20;0.20;;;;;;;;;;1851020;76;26811;-53
2022/01/28 15:03:23;;;;;;;0.10;0.10;;;;;;;;;;1838515;76;26319;-57
2022/01/28 15:05:50;;;;;;;0.00;0.00;;;;;;;;;;1849873;77;26307;-56
2022/01/28 15:08:26;;;;;;;0.15;0.15;;;;;;;;;;1822304;77;26237;-53
2022/01/28 15:10:46;;;;;;;0.15;0.15;;;;;;;;;;1833996;77;26684;-48
2022/01/28 15:13:13;;;;;;;1.25;0.20;;;;;;;;;;1848314;77;26299;-55
2022/01/28 15:15:41;;;;;;;0.17;0.17;;;;;;;;;;1846833;77;26258;-50
2022/01/28 15:18:08;;;;;;;0.20;0.20;;;;;;;;;;1841320;77;26562;-55
2022/01/28 15:20:35;;;;;;;0.20;0.20;;;;;;;;;;1842381;77;26295;-52
2022/01/28 15:23:02;;;;;;;0.10;0.10;;;;;;;;;;1835336;77;26201;-49
2022/01/28 15:25:31;;;;;;;0.75;0.17;;;;;;;;;;1832018;77;39093;-53
2022/01/28 15:27:59;;;;;;;0.15;0.15;;;;;;;;;;1837925;76;26388;-56
2022/01/28 15:34:10;;;;;;;0.55;0.13;;;;;;;;;;1843075;77;26359;-50
2022/01/28 15:38:23;;;;;;;0.40;0.20;;;;;;;;;;1842026;77;27591;-49
2022/01/28 15:40:50;;;;;;;1.07;0.20;;;;;;;;;;1839975;77;26333;-50
2022/01/28 15:43:20;;;;;;;1.25;0.10;;;;;;;;;;1842539;77;26404;-54
2022/01/28 15:45:48;;;;;;;1.15;0.20;;;;;;;;;;1850464;77;26300;-47
2022/01/28 15:48:15;;;;;;;0.37;0.20;;;;;;;;;;1840353;77;26316;-49
2022/01/28 15:50:47;;;;;;;1.35;0.33;;;;;;;;;;1850016;76;26723;-53
2022/01/28 15:53:11;;;;;;;1.65;0.28;;;;;;;;;;1848266;77;26338;-47
2022/01/28 15:55:38;;;;;;;0.30;0.30;;;;;;;;;;1851309;77;26326;-50
2022/01/28 15:58:06;;;;;;;0.40;0.40;;;;;;;;;;1857244;76;26284;-53
2022/01/28 16:00:33;;;;;;;1.87;0.42;;;;;;;;;;1852675;77;26265;-51
2022/01/28 16:03:00;;;;;;;0.35;0.35;;;;;;;;;;1849480;76;26957;-51
2022/01/28 16:05:27;;;;;;;0.40;0.40;;;;;;;;;;1867161;75;26702;-53
2022/01/28 16:07:55;;;;;;;0.30;0.30;;;;;;;;;;1862518;76;26686;-52
2022/01/28 16:10:32;;;;;;;1.25;0.30;;;;;;;;;;1861739;75;26330;-53